Kezdőlap
METAR-TAF:

METAR-TAF

Repülőterek :

St. Francis, Kansas, Amerikai Egyesült Államok

földrajzi szélesség: 39-45-40N, földrajzi hosszúság: 101-47-45W, magasság: 1040 m

Jelenlegi meteorológiai megfigyelések

A jelentés 24 perccel ezelõtt készült, 00:15 UTC
Dél-délkeleti szél 12 kt széllökések: 19 kt
Hőmérséklet 11°C
Páratartalom 30%
Légköri nyomás 1013 hPa
Látótávolság: 16.1 km
Derült ég

METAR: KSYF 050015Z AUTO 15012G19KT 10SM CLR 11/M06 A2991 RMK AO2 T01121061 PWINO

Idő: 19:39 (00:39 UTC)


TAF: hiányzik

Meteorológiai megfigyelések és előrejelzések több, mint 4000 repülőtéren (METAR és TAF jelentéseket).

A térképen piros és sárga pontok jelzik az elérhető meteorológiai állomásokat.

Mozgassa az egeret a pont fölött, hogy megjelenjen az állomás neve.

Azután kattintson az időjárási megfigyelések és előrejelzések megtekintéséhez.

A térkép megváltoztatása: kattintson a fekete keresztel jelölt zöld gombra ráközelítéshez, a vonallal jelölt zöld gombra távolításhoz, vagy a zöld nyilakra a szomszédos térképek eléréséhez.


METAR-TAF: